createdAt,value
2022-08-07T00:00:39.978Z,14.55
2022-08-07T00:03:09.066Z,14.50
2022-08-07T00:05:37.439Z,14.45
2022-08-07T00:08:07.750Z,14.40
2022-08-07T00:10:48.342Z,14.36
2022-08-07T00:13:27.138Z,14.28
2022-08-07T00:15:55.429Z,14.37
2022-08-07T00:18:25.663Z,14.27
2022-08-07T00:20:54.900Z,14.29
2022-08-07T00:23:25.307Z,14.39
2022-08-07T00:26:00.182Z,14.45
2022-08-07T00:28:33.963Z,14.45
2022-08-07T00:31:06.296Z,14.47
2022-08-07T00:33:41.989Z,14.56
2022-08-07T00:36:10.467Z,14.58
2022-08-07T00:38:40.228Z,14.54
2022-08-07T00:41:09.924Z,14.66
2022-08-07T00:44:00.315Z,14.53
2022-08-07T00:46:30.279Z,14.48
2022-08-07T00:49:02.309Z,14.45
2022-08-07T00:51:58.216Z,14.34
2022-08-07T00:54:19.779Z,14.34
2022-08-07T00:56:49.649Z,14.25
2022-08-07T00:59:35.553Z,14.20
2022-08-07T01:02:06.293Z,14.15
2022-08-07T01:04:43.333Z,14.00
2022-08-07T01:07:12.673Z,13.85
2022-08-07T01:10:05.712Z,13.93
2022-08-07T01:12:31.048Z,13.83
2022-08-07T01:15:04.405Z,13.77
2022-08-07T01:17:33.481Z,13.91
2022-08-07T01:20:06.603Z,13.76
2022-08-07T01:22:46.505Z,13.74
2022-08-07T01:25:54.695Z,13.80
2022-08-07T01:28:12.704Z,13.61
2022-08-07T01:30:42.930Z,13.54
2022-08-07T01:33:13.107Z,13.43
2022-08-07T01:35:54.203Z,13.31
2022-08-07T01:38:24.828Z,13.29
2022-08-07T01:40:55.872Z,13.15
2022-08-07T01:43:26.049Z,13.15
2022-08-07T01:45:55.066Z,13.12
2022-08-07T01:48:29.704Z,13.01
2022-08-07T01:51:24.351Z,12.93
2022-08-07T01:54:08.886Z,12.92
2022-08-07T01:56:49.405Z,12.74
2022-08-07T01:59:23.685Z,12.85
2022-08-07T02:02:06.186Z,12.89
2022-08-07T02:04:52.486Z,12.72
2022-08-07T02:07:44.889Z,12.63
2022-08-07T02:10:23.999Z,12.47
2022-08-07T02:12:53.476Z,12.44
2022-08-07T02:15:25.422Z,12.38
2022-08-07T02:17:57.452Z,12.51
2022-08-07T02:20:29.658Z,12.41
2022-08-07T02:23:01.799Z,12.20
2022-08-07T02:26:31.973Z,12.14
2022-08-07T02:28:24.710Z,12.03
2022-08-07T02:30:55.193Z,11.98
2022-08-07T02:33:41.907Z,12.06
2022-08-07T02:36:30.619Z,11.99
2022-08-07T02:39:16.243Z,12.03
2022-08-07T02:41:50.638Z,11.95
2022-08-07T02:44:26.785Z,11.95
2022-08-07T02:46:57.515Z,12.04
2022-08-07T02:49:28.887Z,11.99
2022-08-07T02:52:21.389Z,11.91
2022-08-07T02:54:52.160Z,11.99
2022-08-07T02:57:22.865Z,12.01
2022-08-07T03:00:04.908Z,11.97
2022-08-07T03:02:35.696Z,11.86
2022-08-07T03:05:06.657Z,11.83
2022-08-07T03:07:43.241Z,11.84
2022-08-07T03:10:25.209Z,11.78
2022-08-07T03:12:55.875Z,11.76
2022-08-07T03:15:35.609Z,11.74
2022-08-07T03:18:17.470Z,11.59
2022-08-07T03:20:50.779Z,11.51
2022-08-07T03:23:34.135Z,11.41
2022-08-07T03:26:21.006Z,11.43
2022-08-07T03:28:55.295Z,11.39
2022-08-07T03:31:26.146Z,11.34
2022-08-07T03:33:59.107Z,11.22
2022-08-07T03:36:30.352Z,11.18
2022-08-07T03:39:05.412Z,11.14
2022-08-07T03:41:42.319Z,11.20
2022-08-07T03:44:21.784Z,11.22
2022-08-07T03:47:10.893Z,11.20
2022-08-07T03:49:40.598Z,11.28
2022-08-07T03:52:22.426Z,11.21
2022-08-07T03:54:54.437Z,11.42
2022-08-07T03:59:07.006Z,11.48
2022-08-07T04:00:15.549Z,11.48
2022-08-07T04:02:47.307Z,11.55
2022-08-07T04:05:20.512Z,11.56
2022-08-07T04:07:57.800Z,11.63
2022-08-07T04:10:26.100Z,11.79
2022-08-07T04:12:58.328Z,12.54
2022-08-07T04:15:28.984Z,13.69
2022-08-07T04:18:56.261Z,14.90
2022-08-07T04:20:54.640Z,16.04
2022-08-07T04:23:25.709Z,16.85
2022-08-07T04:26:12.064Z,17.88
2022-08-07T04:28:45.425Z,18.95
2022-08-07T04:31:20.041Z,19.54
2022-08-07T04:33:55.123Z,19.97
2022-08-07T04:36:26.309Z,21.05
2022-08-07T04:38:55.023Z,21.74
2022-08-07T04:41:23.483Z,21.94
2022-08-07T04:44:12.137Z,22.34
2022-08-07T04:47:04.124Z,23.12
2022-08-07T04:49:47.411Z,23.83
2022-08-07T04:52:34.302Z,24.33
2022-08-07T04:55:14.843Z,25.15
2022-08-07T04:58:10.889Z,25.54
2022-08-07T05:00:57.075Z,26.04
2022-08-07T05:04:00.439Z,26.92
2022-08-07T05:06:28.347Z,26.77
2022-08-07T05:09:43.455Z,27.58
2022-08-07T05:12:15.623Z,28.22
2022-08-07T05:15:03.449Z,28.06
2022-08-07T05:17:52.577Z,29.00
2022-08-07T05:20:28.153Z,28.88
2022-08-07T05:23:03.020Z,29.78
2022-08-07T05:25:54.468Z,30.71
2022-08-07T05:28:26.872Z,30.59
2022-08-07T05:30:58.296Z,30.21
2022-08-07T05:33:29.575Z,31.70
2022-08-07T05:36:00.757Z,31.98
2022-08-07T05:38:58.326Z,31.97
2022-08-07T05:41:21.774Z,32.92
2022-08-07T05:44:08.060Z,32.05
2022-08-07T05:46:41.451Z,33.46
2022-08-07T05:49:12.976Z,32.58
2022-08-07T05:51:46.238Z,32.51
2022-08-07T05:54:31.513Z,33.78
2022-08-07T05:57:04.341Z,33.59
2022-08-07T05:59:38.808Z,34.69
2022-08-07T06:02:28.885Z,35.92
2022-08-07T06:05:01.610Z,35.66
2022-08-07T06:08:13.438Z,35.24
2022-08-07T06:10:23.080Z,35.54
2022-08-07T06:12:51.257Z,34.62
2022-08-07T06:15:21.322Z,34.51
2022-08-07T06:17:53.314Z,35.45
2022-08-07T06:20:31.694Z,36.49
2022-08-07T06:23:46.401Z,35.00
2022-08-07T06:26:02.504Z,34.96
2022-08-07T06:28:30.827Z,34.35
2022-08-07T06:30:59.848Z,33.46
2022-08-07T06:33:29.727Z,33.20
2022-08-07T06:36:06.495Z,35.20
2022-08-07T06:38:59.460Z,34.47
2022-08-07T06:42:02.409Z,34.48
2022-08-07T06:44:31.042Z,34.89
2022-08-07T06:47:12.190Z,34.27
2022-08-07T06:49:51.032Z,35.79
2022-08-07T06:52:31.927Z,36.28
2022-08-07T06:55:32.814Z,38.28
2022-08-07T06:58:00.631Z,38.88
2022-08-07T07:00:32.235Z,36.59
2022-08-07T07:03:11.007Z,38.00
2022-08-07T07:06:02.385Z,39.12
2022-08-07T07:08:33.541Z,40.39
2022-08-07T07:11:14.060Z,40.00
2022-08-07T07:13:58.440Z,41.46
2022-08-07T07:16:45.033Z,39.28
2022-08-07T07:19:57.179Z,41.07
2022-08-07T07:22:32.328Z,39.19
2022-08-07T07:25:03.061Z,40.30
2022-08-07T07:28:02.800Z,40.93
2022-08-07T07:30:40.432Z,40.50
2022-08-07T07:33:12.358Z,39.79
2022-08-07T07:36:03.901Z,38.38
2022-08-07T07:38:38.099Z,39.59
2022-08-07T07:41:10.972Z,38.67
2022-08-07T07:44:17.239Z,38.12
2022-08-07T07:46:54.459Z,40.41
2022-08-07T07:50:35.339Z,41.42
2022-08-07T07:52:18.522Z,41.11
2022-08-07T07:54:51.229Z,42.21
2022-08-07T07:57:43.668Z,42.29
2022-08-07T08:00:15.142Z,42.14
2022-08-07T08:03:06.039Z,42.82
2022-08-07T08:05:50.587Z,42.53
2022-08-07T08:08:35.339Z,40.66
2022-08-07T08:11:16.538Z,38.46
2022-08-07T08:13:54.996Z,39.83
2022-08-07T08:16:31.958Z,38.03
2022-08-07T08:19:17.341Z,39.76
2022-08-07T08:22:11.580Z,39.70
2022-08-07T08:25:18.546Z,41.16
2022-08-07T08:27:56.918Z,39.14
2022-08-07T08:30:29.718Z,38.91
2022-08-07T08:33:04.668Z,39.39
2022-08-07T08:35:39.348Z,36.35
2022-08-07T08:38:18.383Z,36.74
2022-08-07T08:40:54.756Z,36.42
2022-08-07T08:43:42.012Z,35.54
2022-08-07T08:46:15.718Z,37.31
2022-08-07T08:48:54.010Z,37.73
2022-08-07T08:52:13.074Z,39.71
2022-08-07T08:54:25.302Z,38.41
2022-08-07T08:56:55.910Z,37.54
2022-08-07T08:59:30.702Z,37.52
2022-08-07T09:02:35.175Z,38.97
2022-08-07T09:05:32.119Z,36.36
2022-08-07T09:08:28.605Z,35.69
2022-08-07T09:11:08.170Z,37.79
2022-08-07T09:13:42.670Z,34.42
2022-08-07T09:16:24.602Z,33.06
2022-08-07T09:19:51.677Z,32.78
2022-08-07T09:24:31.902Z,34.44
2022-08-07T09:25:27.038Z,33.28
2022-08-07T09:28:03.804Z,35.28
2022-08-07T09:30:50.578Z,34.78
2022-08-07T09:33:52.670Z,36.04
2022-08-07T09:36:35.887Z,35.58
2022-08-07T09:39:54.627Z,37.64
2022-08-07T09:42:23.173Z,39.45
2022-08-07T09:47:25.693Z,34.08
2022-08-07T09:48:12.165Z,37.09
2022-08-07T09:50:55.476Z,34.64
2022-08-07T09:53:25.877Z,35.41
2022-08-07T09:56:37.363Z,38.14
2022-08-07T09:59:22.072Z,39.00
2022-08-07T10:02:18.032Z,36.25
2022-08-07T10:05:14.184Z,37.18
2022-08-07T10:07:58.750Z,39.58
2022-08-07T10:11:08.761Z,36.92
2022-08-07T10:14:00.337Z,35.77
2022-08-07T10:16:43.218Z,34.97
2022-08-07T10:19:50.239Z,32.97
2022-08-07T10:22:47.255Z,36.48
2022-08-07T10:25:42.120Z,37.59
2022-08-07T10:28:27.743Z,36.09
2022-08-07T10:31:12.316Z,33.90
2022-08-07T10:34:15.493Z,35.97
2022-08-07T10:36:59.602Z,35.80
2022-08-07T10:40:02.895Z,34.57
2022-08-07T10:42:38.444Z,35.59
2022-08-07T10:45:44.407Z,36.36
2022-08-07T10:48:35.114Z,36.89
2022-08-07T10:51:16.270Z,31.55
2022-08-07T10:54:08.313Z,32.17
2022-08-07T10:56:47.357Z,32.24
2022-08-07T10:59:31.902Z,34.17
2022-08-07T11:02:33.086Z,34.46
2022-08-07T11:05:15.393Z,35.79
2022-08-07T11:07:58.820Z,35.16
2022-08-07T11:10:38.470Z,35.61
2022-08-07T11:13:42.415Z,34.98
2022-08-07T11:16:08.076Z,35.95
2022-08-07T11:18:42.488Z,32.12
2022-08-07T11:21:24.434Z,32.08
2022-08-07T11:24:00.306Z,31.27
2022-08-07T11:26:38.611Z,31.27
2022-08-07T11:29:41.982Z,33.50
2022-08-07T11:32:26.110Z,34.79
2022-08-07T11:34:58.416Z,34.68
2022-08-07T11:37:58.232Z,33.68
2022-08-07T11:40:49.481Z,31.05
2022-08-07T11:43:29.619Z,30.61
2022-08-07T11:46:23.346Z,30.15
2022-08-07T11:49:50.657Z,29.75
2022-08-07T11:52:29.126Z,30.24
2022-08-07T11:55:18.960Z,28.94
2022-08-07T11:58:16.342Z,29.72
2022-08-07T12:01:02.663Z,30.56
2022-08-07T12:03:54.585Z,30.97
2022-08-07T12:06:39.164Z,31.04
2022-08-07T12:09:16.764Z,30.25
2022-08-07T12:12:30.583Z,30.55
2022-08-07T12:15:04.988Z,29.18
2022-08-07T12:17:41.599Z,27.88
2022-08-07T12:20:35.157Z,28.23
2022-08-07T12:23:21.424Z,27.53
2022-08-07T12:26:35.441Z,28.18
2022-08-07T12:29:37.645Z,28.08
2022-08-07T12:32:15.332Z,27.74
2022-08-07T12:34:49.330Z,28.19
2022-08-07T12:37:23.645Z,28.27
2022-08-07T12:40:01.030Z,28.01
2022-08-07T12:42:32.397Z,28.04
2022-08-07T12:45:06.931Z,27.39
2022-08-07T12:47:50.737Z,27.48
2022-08-07T12:50:39.510Z,28.16
2022-08-07T12:53:22.011Z,27.34
2022-08-07T12:56:03.655Z,27.05
2022-08-07T12:59:20.726Z,27.43
2022-08-07T13:02:03.584Z,27.44
2022-08-07T13:06:03.453Z,27.78
2022-08-07T13:08:24.856Z,28.11
2022-08-07T13:11:07.302Z,27.79
2022-08-07T13:13:51.831Z,27.09
2022-08-07T13:16:30.638Z,26.97
2022-08-07T13:19:45.622Z,27.34
2022-08-07T13:22:19.642Z,26.97
2022-08-07T13:24:59.155Z,27.27
2022-08-07T13:28:12.757Z,27.22
2022-08-07T13:30:41.176Z,27.14
2022-08-07T13:34:34.407Z,27.10
2022-08-07T13:36:17.714Z,27.08
2022-08-07T13:38:54.195Z,26.96
2022-08-07T13:41:33.885Z,26.70
2022-08-07T13:44:05.115Z,26.91
2022-08-07T13:46:49.202Z,27.45
2022-08-07T13:50:33.762Z,27.36
2022-08-07T13:52:25.936Z,27.10
2022-08-07T13:55:06.547Z,27.12
2022-08-07T13:57:37.809Z,27.44
2022-08-07T14:00:13.382Z,26.86
2022-08-07T14:02:58.728Z,27.10
2022-08-07T14:05:38.143Z,27.10
2022-08-07T14:08:09.172Z,26.94
2022-08-07T14:10:42.315Z,26.93
2022-08-07T14:13:16.804Z,26.99
2022-08-07T14:15:56.821Z,27.01
2022-08-07T14:18:31.001Z,26.87
2022-08-07T14:21:11.994Z,27.04
2022-08-07T14:24:03.919Z,27.22
2022-08-07T14:26:39.110Z,27.06
2022-08-07T14:30:02.996Z,26.79
2022-08-07T14:32:07.918Z,27.03
2022-08-07T14:37:36.161Z,26.95
2022-08-07T14:40:27.143Z,26.56
2022-08-07T14:43:01.510Z,27.06
2022-08-07T14:45:51.654Z,27.30
2022-08-07T14:48:28.242Z,27.26
2022-08-07T14:51:05.292Z,27.23
2022-08-07T14:54:08.640Z,26.92
2022-08-07T14:56:30.603Z,26.95
2022-08-07T14:59:04.527Z,27.28
2022-08-07T15:01:51.369Z,27.11
2022-08-07T15:04:25.155Z,26.83
2022-08-07T15:06:53.738Z,27.05
2022-08-07T15:09:59.051Z,27.10
2022-08-07T15:12:25.902Z,26.95
2022-08-07T15:20:54.962Z,27.38
2022-08-07T15:26:23.376Z,27.40
2022-08-07T15:30:08.408Z,27.35
2022-08-07T15:32:00.493Z,26.88
2022-08-07T15:34:36.161Z,27.12
2022-08-07T15:37:09.095Z,27.11
2022-08-07T15:39:56.253Z,27.21
2022-08-07T15:45:55.859Z,27.22
2022-08-07T15:48:31.291Z,27.18
2022-08-07T15:51:09.913Z,27.18
2022-08-07T15:53:52.240Z,26.97
2022-08-07T15:56:25.842Z,27.28
2022-08-07T15:58:57.994Z,27.39
2022-08-07T16:01:38.678Z,27.36
2022-08-07T16:04:14.716Z,27.07
2022-08-07T16:06:50.047Z,27.20
2022-08-07T16:09:24.179Z,27.01
2022-08-07T16:12:25.086Z,27.15
2022-08-07T16:15:06.072Z,26.99
2022-08-07T16:18:01.865Z,26.90
2022-08-07T16:21:42.914Z,26.73
2022-08-07T16:23:58.748Z,26.59
2022-08-07T16:26:59.630Z,26.34
2022-08-07T16:30:10.899Z,26.21
2022-08-07T16:32:46.381Z,26.51
2022-08-07T16:35:57.004Z,26.37
2022-08-07T16:39:00.628Z,26.34
2022-08-07T16:41:48.562Z,26.19
2022-08-07T16:45:04.096Z,25.89
2022-08-07T16:48:13.623Z,25.88
2022-08-07T16:51:21.863Z,25.78
2022-08-07T16:54:19.943Z,25.86
2022-08-07T16:57:03.336Z,25.79
2022-08-07T16:59:47.018Z,25.80
2022-08-07T17:02:51.260Z,25.66
2022-08-07T17:06:19.412Z,25.64
2022-08-07T17:09:08.641Z,25.74
2022-08-07T17:12:01.894Z,25.73
2022-08-07T17:14:33.635Z,25.62
2022-08-07T17:17:06.314Z,25.22
2022-08-07T17:20:01.806Z,25.26
2022-08-07T17:22:38.136Z,25.22
2022-08-07T17:25:16.088Z,25.24
2022-08-07T17:28:00.362Z,25.26
2022-08-07T17:30:37.007Z,25.23
2022-08-07T17:34:08.365Z,25.22
2022-08-07T17:36:26.001Z,25.26
2022-08-07T17:39:10.331Z,25.30
2022-08-07T17:42:04.892Z,25.17
2022-08-07T17:44:50.110Z,25.11
2022-08-07T17:47:42.249Z,25.16
2022-08-07T17:50:19.237Z,25.04
2022-08-07T17:52:59.083Z,24.99
2022-08-07T17:55:54.145Z,24.94
2022-08-07T17:58:31.963Z,25.05
2022-08-07T18:01:20.621Z,24.81
2022-08-07T18:07:20.171Z,24.72
2022-08-07T18:10:06.034Z,24.62
2022-08-07T18:12:49.754Z,24.53
2022-08-07T18:15:24.168Z,24.39
2022-08-07T18:18:46.499Z,24.29
2022-08-07T18:21:42.191Z,24.21
2022-08-07T18:24:02.083Z,24.16
2022-08-07T18:27:17.354Z,24.01
2022-08-07T18:30:05.226Z,23.82
2022-08-07T18:33:22.140Z,23.82
2022-08-07T18:36:03.022Z,23.69
2022-08-07T18:40:04.928Z,23.57
2022-08-07T18:41:56.207Z,23.53
2022-08-07T18:45:09.113Z,23.42
2022-08-07T18:47:44.825Z,23.41
2022-08-07T18:50:44.018Z,23.46
2022-08-07T18:53:17.530Z,23.32
2022-08-07T18:55:59.600Z,23.22
2022-08-07T18:58:39.005Z,23.26
2022-08-07T19:02:20.105Z,23.05
2022-08-07T19:04:28.190Z,23.02
2022-08-07T19:07:09.657Z,22.92
2022-08-07T19:09:55.533Z,22.72
2022-08-07T19:12:37.244Z,22.67
2022-08-07T19:16:05.635Z,22.61
2022-08-07T19:18:34.184Z,22.58
2022-08-07T19:21:45.074Z,22.42
2022-08-07T19:24:02.474Z,22.34
2022-08-07T19:28:28.347Z,22.17
2022-08-07T19:31:00.139Z,22.20
2022-08-07T19:32:26.442Z,22.03
2022-08-07T19:35:02.773Z,22.15
2022-08-07T19:37:56.446Z,21.96
2022-08-07T19:40:31.165Z,21.99
2022-08-07T19:43:02.389Z,22.02
2022-08-07T19:46:05.716Z,21.81
2022-08-07T19:48:31.962Z,21.60
2022-08-07T19:51:20.212Z,21.50
2022-08-07T19:54:31.356Z,21.41
2022-08-07T19:58:02.348Z,21.33
2022-08-07T19:59:40.834Z,21.33
2022-08-07T20:02:19.091Z,21.47
2022-08-07T20:04:50.458Z,21.25
2022-08-07T20:07:46.451Z,21.28
2022-08-07T20:10:37.999Z,21.01
2022-08-07T20:13:23.026Z,20.90
2022-08-07T20:15:57.612Z,20.93
2022-08-07T20:18:32.669Z,20.77
2022-08-07T20:21:14.237Z,20.62
2022-08-07T20:23:54.732Z,20.42
2022-08-07T20:26:32.437Z,20.45
2022-08-07T20:29:46.900Z,20.33
2022-08-07T20:32:02.687Z,20.27
2022-08-07T20:34:50.286Z,20.45
2022-08-07T20:37:24.987Z,20.71
2022-08-07T20:40:02.756Z,20.65
2022-08-07T20:42:41.049Z,20.62
2022-08-07T20:45:33.492Z,20.55
2022-08-07T20:48:11.172Z,20.46
2022-08-07T20:50:58.071Z,20.37
2022-08-07T20:53:26.187Z,20.33
2022-08-07T20:56:16.535Z,20.33
2022-08-07T20:58:59.175Z,20.32
2022-08-07T21:01:36.298Z,20.30
2022-08-07T21:04:22.526Z,20.29
2022-08-07T21:06:56.942Z,19.99
2022-08-07T21:09:52.164Z,20.11
2022-08-07T21:12:28.677Z,19.88
2022-08-07T21:15:04.246Z,19.68
2022-08-07T21:18:03.234Z,19.68
2022-08-07T21:20:29.647Z,19.61
2022-08-07T21:23:07.387Z,19.46
2022-08-07T21:26:03.070Z,19.17
2022-08-07T21:28:49.214Z,18.91
2022-08-07T21:31:49.468Z,18.69
2022-08-07T21:34:26.617Z,18.48
2022-08-07T21:37:04.919Z,18.42
2022-08-07T21:39:47.037Z,18.30
2022-08-07T21:42:42.879Z,18.28
2022-08-07T21:46:03.469Z,18.20
2022-08-07T21:48:28.655Z,18.00
2022-08-07T21:51:19.894Z,17.77
2022-08-07T21:53:54.414Z,17.59
2022-08-07T21:56:36.371Z,17.48
2022-08-07T21:59:10.833Z,17.55
2022-08-07T22:02:07.796Z,17.48
2022-08-07T22:04:51.150Z,17.60
2022-08-07T22:07:48.631Z,17.45
2022-08-07T22:10:17.191Z,17.51
2022-08-07T22:12:52.436Z,17.50
2022-08-07T22:16:43.246Z,17.45
2022-08-07T22:18:22.082Z,17.39
2022-08-07T22:20:58.695Z,17.40
2022-08-07T22:23:34.670Z,17.32
2022-08-07T22:26:16.621Z,17.35
2022-08-07T22:28:55.159Z,17.46
2022-08-07T22:31:45.538Z,17.39
2022-08-07T22:34:28.772Z,17.41
2022-08-07T22:37:14.955Z,17.27
2022-08-07T22:39:53.998Z,17.12
2022-08-07T22:42:29.283Z,17.13
2022-08-07T22:45:04.121Z,16.99
2022-08-07T22:48:13.516Z,16.83
2022-08-07T22:51:14.972Z,16.75
2022-08-07T22:54:06.508Z,16.81
2022-08-07T22:56:48.863Z,16.88
2022-08-07T22:59:43.602Z,16.95
2022-08-07T23:02:36.963Z,17.03
2022-08-07T23:06:15.717Z,17.12
2022-08-07T23:08:55.782Z,17.03
2022-08-07T23:11:45.708Z,16.78
2022-08-07T23:14:34.629Z,16.62
2022-08-07T23:17:37.868Z,16.48
2022-08-07T23:20:40.587Z,16.44
2022-08-07T23:24:05.396Z,16.38
2022-08-07T23:26:50.506Z,16.34
2022-08-07T23:30:38.188Z,16.16
2022-08-07T23:34:34.502Z,16.01
2022-08-07T23:35:48.518Z,16.00
2022-08-07T23:38:36.925Z,15.98
2022-08-07T23:41:24.325Z,15.94
2022-08-07T23:44:19.251Z,15.89
2022-08-07T23:47:29.857Z,15.88
2022-08-07T23:50:38.046Z,15.83
2022-08-07T23:53:51.159Z,15.72
2022-08-07T23:56:21.531Z,15.66
2022-08-07T23:58:59.179Z,15.57
